Grand Junction Regional Airport
KGJT : now visible

Airfield :











YOU CAN JOIN US ON...

 
LOGIN :

Register | Disclaimer

   EN    FR    IT 

 









Legend :    VFR   Marginal VFR   IFR   Intensive IFR   Very Intensive IFR
Visi :
Ceiling :
>= 8 km
>= 3000ft
5 to 8 km
1000 to 3000 ft
1500m to 5 km
500 to 1000 ft
800 to 1500m
200 to 500 ft
< 800m
< 200 ft
Symbols :   Thunderstorms  Fog  Heavy snow  Heavy precipitations  Wind > 20 kt






- Airport Elevation : 4858 ft
- IATA code : GJT


KGJT - Grand Junction Regional

CURRENT METAR :
  • 160653Z AUTO 34006KT 10SM CLR 01/01 A3001 RMK AO2 SLP165 T00110006 400890011

EXPIRED METARs :
  • 160553Z AUTO 36007KT 10SM CLR 02/01 A3000 RMK AO2 SLP160 60001 T00170011 10056 20011 51014
  • 160453Z AUTO 33006KT 10SM CLR 02/01 A2999 RMK AO2 SLP147 T00170011

TAF KGJT
Valid from the 16 at 06:00 until the 17 at 06:00 UTC


160541Z 1606/1706 33008KT P6SM SCT035 BKN050
FM161200 06005KT P6SM FEW050 SCT100
FM161700 26010G20KT P6SM FEW045 FEW120
FM162300 32012G23KT P6SM FEW070 SCT120
FM170400 03011G20KT P6SM FEW070 SCT150
KZDV FIR / North America



MET'MAP, your aeronautical weather chart ! - Copyright ORBIFLY December 2007 - Disclaimer

ORBIFLY MET'MAP TEAM :

Programming & Development : Alexandra Zaïnal
Concept & original design : Baudouin d'Aumeries
Assistance for programming : Marc-Olivier Méhu
Technical & hardware support : Manuel Goepfert

Contact : metmap@orbifly.com




SOURCES & CREDITS :

   NOAA       Earth
Advisory